Latest Weather Observations for Pound Creek

IDV60801

Issued at 10:05 am EST Saturday 30 August 2014 (issued every 30 minutes, with the page automatically refreshed every 10 minutes)

About weather observations | Map of weather stations | Latest weather observations for VIC | Other Formats
Station Details ID: 085099 Name: POUND CREEK Lat: -38.63 Lon: 145.81 Height: 3.0 m
Data from the previous 72 hours. | See also: Recent months at Pound Creek
Date/Time
EST
Temp
°C
App
Temp
°C
Dew
Point
Rel
Hum
%
Delta-T
°C
Wind Press
QNH
hPa
Press
MSL
hPa
Rain
since 9 am
mm
Dir
 
Spd
km/h
Gust
km/h
Spd
kts
Gust
kts
30/10:00am 14.6 10.0 9.8 73 2.5 ENE 24 32 13 17 1025.9 1025.9 0.0
30/09:30am 14.0 10.1 9.4 74 2.3 ENE 20 30 11 16 1026.3 1026.3 0.0
30/09:00am 13.2 9.3 9.6 79 1.8 E 20 28 11 15 1026.4 1026.4 0.2
30/08:30am 12.6 8.8 9.2 80 1.7 ENE 19 26 10 14 1026.5 1026.5 0.2
30/08:00am 11.9 10.4 9.3 84 1.3 E 7 11 4 6 1026.8 1026.8 0.2
30/07:30am 9.8 8.1 8.2 90 0.8 S 7 13 4 7 1026.6 1026.6 0.2
30/07:00am 10.0 7.9 8.3 89 0.8 E 9 17 5 9 1026.4 1026.4 0.2
30/06:30am 10.1 6.5 8.5 90 0.8 ENE 17 24 9 13 1026.1 1026.1 0.2
30/06:00am 9.8 7.0 8.7 93 0.5 ENE 13 20 7 11 1026.0 1026.0 0.2
30/05:30am 8.7 7.1 7.9 95 0.4 E 6 9 3 5 1026.1 1026.1 0.2
30/05:00am 9.4 7.0 8.8 96 0.3 E 11 17 6 9 1026.3 1026.3 0.2
30/04:30am 8.7 6.3 8.6 99 0.0 E 11 15 6 8 1026.4 1026.4 0.0
30/04:00am 6.5 4.5 6.4 99 0.0 ENE 6 11 3 6 1026.4 1026.4 0.0
30/03:30am 5.2 3.3 5.1 99 0.0 ENE 4 6 2 3 1026.5 1026.5 0.0
30/03:00am 4.3 2.3 4.2 99 0.0 E 4 6 2 3 1026.8 1026.8 0.0
30/02:30am 4.5 2.1 4.4 99 0.0 ENE 6 7 3 4 1027.0 1027.0 0.0
30/02:00am 4.0 1.9 3.9 99 0.0 E 4 6 2 3 1027.3 1027.3 0.0
30/01:30am 3.7 1.9 3.4 98 0.1 NNE 2 4 1 2 1027.6 1027.6 0.0
30/01:00am 5.9 3.6 5.8 99 0.0 ENE 7 9 4 5 1027.8 1027.8 0.0
30/12:30am 5.1 3.2 5.0 99 0.0 E 4 6 2 3 1027.9 1027.9 0.0
30/12:00am 4.2 1.7 3.9 98 0.1 ENE 6 7 3 4 1028.1 1028.1 0.0
 
Date/Time
EST
Temp
°C
App
Temp
°C
Dew
Point
Rel
Hum
%
Delta-T
°C
Wind Press
QNH
hPa
Press
MSL
hPa
Rain
since 9 am
mm
Dir
 
Spd
km/h
Gust
km/h
Spd
kts
Gust
kts
29/11:30pm 5.1 3.9 4.8 98 0.1 CALM 0 0 0 0 1028.1 1028.1 0.0
29/11:00pm 5.6 3.4 5.3 98 0.1 ENE 6 7 3 4 1028.2 1028.2 0.0
29/10:30pm 7.4 6.3 7.1 98 0.1 E 2 4 1 2 1028.4 1028.4 0.0
29/10:00pm 8.2 7.7 7.8 97 0.2 CALM 0 0 0 0 1028.5 1028.5 0.0
29/09:30pm 9.0 7.9 8.6 97 0.2 ESE 4 6 2 3 1028.5 1028.5 0.0
29/09:00pm 9.5 9.3 9.0 97 0.2 CALM 0 2 0 1 1028.4 1028.4 0.0
29/08:30pm 9.2 8.9 8.6 96 0.3 CALM 0 0 0 0 1028.3 1028.3 0.0
29/08:00pm 9.2 8.8 8.4 95 0.4 CALM 0 0 0 0 1028.3 1028.3 0.0
29/07:30pm 10.1 9.2 9.3 95 0.4 ESE 4 6 2 3 1028.2 1028.2 0.0
29/07:00pm 10.4 9.2 9.5 94 0.4 E 6 7 3 4 1028.2 1028.2 0.0
29/06:30pm 12.0 9.9 11.1 94 0.5 SSE 13 17 7 9 1028.1 1028.1 0.0
29/06:00pm 12.2 10.1 11.1 93 0.6 SSE 13 17 7 9 1027.9 1027.9 0.0
29/05:30pm 12.6 10.5 11.2 91 0.7 S 13 15 7 8 1027.7 1027.7 0.0
29/05:00pm 13.3 10.5 11.5 89 0.9 S 17 20 9 11 1027.8 1027.8 0.0
29/04:30pm 13.8 11.4 11.5 86 1.2 SSW 15 19 8 10 1027.7 1027.7 0.0
29/04:00pm 14.0 11.6 11.3 84 1.4 S 15 19 8 10 1027.8 1027.8 0.0
29/03:30pm 14.8 13.0 12.1 84 1.5 SSW 13 15 7 8 1027.7 1027.7 0.0
29/03:00pm 14.8 13.3 11.8 82 1.6 SSW 11 15 6 8 1027.8 1027.8 0.0
29/02:30pm 14.9 13.4 11.9 82 1.6 S 11 15 6 8 1027.9 1027.9 0.0
29/02:00pm 14.8 13.9 11.4 80 1.8 SSW 7 11 4 6 1028.0 1028.0 0.0
29/01:30pm 14.6 13.0 11.6 82 1.6 SSW 11 17 6 9 1028.3 1028.3 0.0
29/01:00pm 14.1 12.0 11.1 82 1.6 SSW 13 17 7 9 1028.5 1028.5 0.0
29/12:30pm 14.3 13.1 11.5 83 1.5 SSW 9 15 5 8 1028.9 1028.9 0.0
29/12:00pm 13.5 12.2 11.2 86 1.2 SSW 9 13 5 7 1029.3 1029.3 0.0
29/11:30am 13.6 13.0 11.7 88 1.0 SSW 6 7 3 4 1029.7 1029.7 0.0
29/11:00am 13.7 13.4 12.8 94 0.5 S 6 7 3 4 1029.7 1029.7 0.0
29/10:30am 12.5 12.0 11.9 96 0.3 S 6 7 3 4 1029.8 1029.8 0.0
29/10:00am 11.9 11.6 11.6 98 0.2 S 4 6 2 3 1029.8 1029.8 0.0
29/09:30am 11.6 11.7 11.4 99 0.1 S 2 4 1 2 1029.9 1029.9 0.0
29/09:00am 10.9 11.1 10.7 99 0.1 CALM 0 0 0 0 1029.9 1029.9 0.0
29/08:30am 9.9 9.9 9.9 100 0.0 CALM 0 0 0 0 1029.7 1029.7 0.0
29/08:00am 8.3 7.9 8.3 100 0.0 CALM 0 0 0 0 1029.5 1029.5 0.0
29/07:30am 7.4 6.8 7.4 100 0.0 CALM 0 0 0 0 1029.3 1029.3 0.0
29/07:00am 7.0 5.9 7.0 100 0.0 N 2 4 1 2 1028.9 1028.9 0.0
29/06:30am 6.5 5.3 6.5 100 0.0 WSW 2 4 1 2 1028.6 1028.6 0.0
29/06:00am 6.5 5.3 6.4 99 0.0 E 2 4 1 2 1028.2 1028.2 0.0
29/05:30am 6.3 5.4 6.2 99 0.0 CALM 0 4 0 2 1028.0 1028.0 0.0
29/05:00am 6.2 4.6 6.2 100 0.0 N 4 7 2 4 1028.1 1028.1 0.0
29/04:30am 5.0 3.5 5.0 100 0.0 N 2 9 1 5 1028.1 1028.1 0.0
29/04:00am 3.7 2.3 3.7 100 0.0 CALM 0 2 0 1 1028.1 1028.1 0.0
29/03:30am 4.5 2.5 4.5 100 0.0 N 4 4 2 2 1028.0 1028.0 0.0
29/03:00am 5.1 2.9 5.1 100 0.0 N 6 7 3 4 1028.1 1028.1 0.0
29/02:30am 5.1 3.6 5.1 100 0.0 NNW 2 4 1 2 1028.2 1028.2 0.0
29/02:00am 4.3 2.7 4.3 100 0.0 WNW 2 4 1 2 1028.2 1028.2 0.0
29/01:30am 4.7 3.5 4.6 99 0.0 CALM 0 0 0 0 1028.3 1028.3 0.0
29/01:00am 5.0 3.9 4.9 99 0.0 CALM 0 2 0 1 1028.4 1028.4 0.0
29/12:30am 6.1 4.4 6.0 99 0.0 NNW 4 4 2 2 1028.3 1028.3 0.0
29/12:00am 5.8 4.1 5.7 99 0.0 NNW 4 7 2 4 1028.4 1028.4 0.0
 
Date/Time
EST
Temp
°C
App
Temp
°C
Dew
Point
Rel
Hum
%
Delta-T
°C
Wind Press
QNH
hPa
Press
MSL
hPa
Rain
since 9 am
mm
Dir
 
Spd
km/h
Gust
km/h
Spd
kts
Gust
kts
28/11:30pm 6.2 4.9 6.1 99 0.0 NNW 2 4 1 2 1028.3 1028.3 0.0
28/11:00pm 6.8 5.6 6.5 98 0.1 N 2 4 1 2 1028.5 1028.5 0.0
28/10:30pm 7.1 6.4 7.0 99 0.0 CALM 0 4 0 2 1028.7 1028.7 0.0
28/10:00pm 6.7 5.5 6.4 98 0.1 NNE 2 4 1 2 1028.6 1028.6 0.0
28/09:30pm 7.2 5.7 6.9 98 0.1 NNW 4 6 2 3 1028.7 1028.7 0.0
28/09:00pm 7.0 5.1 6.7 98 0.1 N 6 7 3 4 1028.5 1028.5 0.0
28/08:30pm 7.4 6.7 7.0 97 0.2 CALM 0 0 0 0 1028.4 1028.4 0.0
28/08:00pm 8.5 7.7 8.1 97 0.2 N 2 4 1 2 1028.2 1028.2 0.0
28/07:30pm 9.4 9.1 8.8 96 0.3 CALM 0 0 0 0 1028.1 1028.1 0.0
28/07:00pm 10.2 10.1 9.4 95 0.4 CALM 0 0 0 0 1028.1 1028.1 0.0
28/06:30pm 10.5 10.4 9.6 94 0.5 CALM 0 0 0 0 1028.0 1028.0 0.0
28/06:00pm 11.7 11.9 10.4 92 0.7 CALM 0 2 0 1 1027.7 1027.7 0.0
28/05:30pm 12.5 12.0 10.9 90 0.8 S 4 6 2 3 1027.6 1027.6 0.0
28/05:00pm 13.3 12.1 11.5 89 0.9 S 9 11 5 6 1027.4 1027.4 0.0
28/04:30pm 13.2 11.6 11.4 89 1.0 SSW 11 13 6 7 1027.5 1027.5 0.0
28/04:00pm 13.7 11.7 11.6 87 1.1 SSW 13 15 7 8 1027.5 1027.5 0.0
28/03:30pm 14.0 12.1 11.7 86 1.2 SSW 13 15 7 8 1027.5 1027.5 0.0
28/03:00pm 14.0 11.9 11.2 83 1.5 SSW 13 17 7 9 1027.5 1027.5 0.0
28/02:30pm 14.1 12.4 11.1 82 1.6 SSW 11 15 6 8 1027.4 1027.4 0.0
28/02:00pm 14.1 11.8 11.6 85 1.3 SSW 15 17 8 9 1027.6 1027.6 0.0
28/01:30pm 14.1 11.2 11.1 82 1.6 SW 17 20 9 11 1027.7 1027.7 0.0
28/01:00pm 14.3 12.0 11.8 85 1.3 SW 15 19 8 10 1027.9 1027.9 0.0
28/12:30pm 14.4 12.0 11.4 82 1.6 SW 15 19 8 10 1028.1 1028.1 0.0
28/12:00pm 17.4 17.0 11.2 67 3.3 NW 4 7 2 4 1028.3 1028.3 0.0
28/11:30am 16.3 15.8 10.6 69 3.0 E 4 9 2 5 1028.6 1028.6 0.0
28/11:00am 15.9 15.9 11.3 74 2.5 ESE 2 6 1 3 1029.0 1029.0 0.0
28/10:30am 15.0 14.7 11.4 79 1.9 ENE 4 6 2 3 1029.3 1029.3 0.0
28/10:00am 13.6 12.6 11.0 84 1.4 NNE 7 13 4 7 1029.4 1029.4 0.0
28/09:30am 12.0 11.3 11.5 97 0.3 NE 6 9 3 5 1029.5 1029.5 0.0
28/09:00am 10.9 11.2 10.9 100 0.0 CALM 0 2 0 1 1029.6 1029.6 0.2
28/08:30am 8.4 8.0 8.4 100 0.0 CALM 0 2 0 1 1029.7 1029.7 0.2
28/08:00am 6.3 5.5 6.3 100 0.0 CALM 0 0 0 0 1029.6 1029.6 0.2
28/07:30am 4.0 1.9 4.0 100 0.0 N 4 6 2 3 1029.4 1029.4 0.2
28/07:00am 3.0 1.5 3.0 100 0.0 CALM 0 0 0 0 1029.3 1029.3 0.2
28/06:30am 2.6 0.7 2.6 100 0.0 N 2 4 1 2 1029.2 1029.2 0.2
28/06:00am 2.1 0.1 2.1 100 0.0 NNW 2 4 1 2 1029.0 1029.0 0.2
28/05:30am 2.7 0.4 2.7 100 0.0 N 4 4 2 2 1028.6 1028.6 0.2
28/05:00am 3.9 1.8 3.9 100 0.0 ENE 4 6 2 3 1028.6 1028.6 0.2
28/04:30am 4.9 3.4 4.8 99 0.0 N 2 6 1 3 1028.7 1028.7 0.0
28/04:00am 6.0 4.7 5.9 99 0.0 N 2 4 1 2 1028.7 1028.7 0.0
28/03:30am 6.8 5.7 6.7 99 0.0 N 2 4 1 2 1028.7 1028.7 0.0
28/03:00am 7.2 6.1 7.1 99 0.0 NNW 2 4 1 2 1028.7 1028.7 0.0
28/02:30am 7.3 5.9 7.2 99 0.0 WNW 4 4 2 2 1028.8 1028.8 0.0
28/02:00am 7.5 6.1 7.4 99 0.0 WSW 4 6 2 3 1028.8 1028.8 0.0
28/01:30am 8.3 7.1 8.2 99 0.0 E 4 4 2 2 1028.9 1028.9 0.0
28/01:00am 9.0 8.0 8.9 99 0.0 ENE 4 7 2 4 1029.0 1029.0 0.0
28/12:30am 9.3 7.8 9.0 98 0.1 NE 7 11 4 6 1029.0 1029.0 0.0
28/12:00am 9.6 8.1 9.3 98 0.1 NNE 7 9 4 5 1029.2 1029.2 0.0
 
Date/Time
EST
Temp
°C
App
Temp
°C
Dew
Point
Rel
Hum
%
Delta-T
°C
Wind Press
QNH
hPa
Press
MSL
hPa
Rain
since 9 am
mm
Dir
 
Spd
km/h
Gust
km/h
Spd
kts
Gust
kts
27/11:30pm 9.8 8.6 9.5 98 0.1 NE 6 7 3 4 1029.3 1029.3 0.0
27/11:00pm 7.6 6.2 7.2 97 0.2 N 4 6 2 3 1029.2 1029.2 0.0
27/10:30pm 8.7 7.2 8.3 97 0.2 N 6 7 3 4 1029.1 1029.1 0.0
27/10:00pm 10.0 9.1 9.4 96 0.3 N 4 7 2 4 1029.1 1029.1 0.0
27/09:30pm 11.0 10.0 10.2 95 0.4 NNE 6 9 3 5 1029.1 1029.1 0.0
27/09:00pm 11.6 11.2 11.0 96 0.3 NE 4 7 2 4 1029.3 1029.3 0.0
27/08:30pm 11.5 11.8 11.0 97 0.3 CALM 0 2 0 1 1029.0 1029.0 0.0
27/08:00pm 11.6 11.6 11.1 97 0.3 WSW 2 4 1 2 1028.8 1028.8 0.0
27/07:30pm 11.6 11.6 11.1 97 0.3 N 2 4 1 2 1028.5 1028.5 0.0
27/07:00pm 11.6 11.6 11.1 97 0.3 SW 2 4 1 2 1028.4 1028.4 0.0
27/06:30pm 11.6 11.2 11.1 97 0.3 SSW 4 6 2 3 1028.1 1028.1 0.0
27/06:00pm 11.6 10.3 11.3 98 0.2 SW 9 15 5 8 1028.2 1028.2 0.0
27/05:30pm 11.7 10.8 11.4 98 0.2 SSW 7 11 4 6 1027.9 1027.9 0.0
27/05:00pm 11.4 9.6 10.9 97 0.3 SW 11 17 6 9 1027.9 1027.9 0.0
27/04:30pm 11.7 10.9 11.2 97 0.3 SW 6 9 3 5 1027.6 1027.6 0.0
27/04:00pm 11.9 12.0 11.4 97 0.3 E 2 6 1 3 1027.4 1027.4 0.0
27/03:30pm 12.2 11.0 11.7 97 0.3 SSW 9 13 5 7 1027.6 1027.6 0.0
27/03:00pm 12.1 10.9 11.6 97 0.3 S 9 15 5 8 1027.5 1027.5 0.0
27/02:30pm 12.4 10.4 11.6 95 0.4 SSW 13 17 7 9 1027.6 1027.6 0.0
27/02:00pm 13.3 11.7 11.7 90 0.8 SSW 11 15 6 8 1027.4 1027.4 0.0
27/01:30pm 14.1 12.0 12.3 89 1.0 SW 15 20 8 11 1027.3 1027.3 0.0
27/01:00pm 14.7 12.6 12.4 86 1.2 SW 15 19 8 10 1027.4 1027.4 0.0
27/12:30pm 14.9 12.9 12.6 86 1.3 SW 15 19 8 10 1027.6 1027.6 0.0
27/12:00pm 17.8 16.8 11.1 65 3.6 NNW 7 13 4 7 1027.8 1027.8 0.0
27/11:30am 17.4 16.1 11.4 68 3.3 NNE 9 13 5 7 1028.0 1028.0 0.0
27/11:00am 17.2 16.0 12.9 76 2.4 NNE 11 15 6 8 1028.2 1028.2 0.0
27/10:30am 16.2 14.7 11.8 75 2.4 NNE 11 17 6 9 1028.3 1028.3 0.0

Other Formats:

Comma delimited format used in spreadsheet applications
http://www.bom.gov.au/fwo/IDV60801/IDV60801.94886.axf

JavaScript Object Notation format (JSON) in row-major order
http://www.bom.gov.au/fwo/IDV60801/IDV60801.94886.json